sensor_id;sensor_type;location;lat;lon;timestamp;P1;durP1;ratioP1;P2;durP2;ratioP2
61003;SDS011;46889;37.310;13.582;2023-05-23T00:01:02;17.35;;;9.75;;
61003;SDS011;46889;37.310;13.582;2023-05-23T00:03:31;16.70;;;10.43;;
61003;SDS011;46889;37.310;13.582;2023-05-23T00:05:58;20.67;;;10.23;;
61003;SDS011;46889;37.310;13.582;2023-05-23T00:10:51;17.58;;;9.55;;
61003;SDS011;46889;37.310;13.582;2023-05-23T00:13:17;17.90;;;10.27;;
61003;SDS011;46889;37.310;13.582;2023-05-23T00:15:43;21.27;;;10.13;;
61003;SDS011;46889;37.310;13.582;2023-05-23T00:18:09;19.02;;;10.60;;
61003;SDS011;46889;37.310;13.582;2023-05-23T00:20:36;20.73;;;10.23;;
61003;SDS011;46889;37.310;13.582;2023-05-23T00:23:07;22.08;;;10.40;;
61003;SDS011;46889;37.310;13.582;2023-05-23T00:25:44;19.15;;;9.77;;
61003;SDS011;46889;37.310;13.582;2023-05-23T00:28:16;17.65;;;10.00;;
61003;SDS011;46889;37.310;13.582;2023-05-23T00:30:43;22.55;;;10.20;;
61003;SDS011;46889;37.310;13.582;2023-05-23T00:33:09;20.00;;;10.05;;
61003;SDS011;46889;37.310;13.582;2023-05-23T00:35:38;19.20;;;11.05;;
61003;SDS011;46889;37.310;13.582;2023-05-23T00:38:08;18.15;;;10.02;;
61003;SDS011;46889;37.310;13.582;2023-05-23T00:40:35;16.58;;;9.23;;
61003;SDS011;46889;37.310;13.582;2023-05-23T00:43:01;19.55;;;9.82;;
61003;SDS011;46889;37.310;13.582;2023-05-23T00:45:27;19.25;;;10.15;;
61003;SDS011;46889;37.310;13.582;2023-05-23T00:47:53;17.25;;;10.60;;
61003;SDS011;46889;37.310;13.582;2023-05-23T00:50:20;20.20;;;10.48;;
61003;SDS011;46889;37.310;13.582;2023-05-23T00:52:47;22.70;;;10.27;;
61003;SDS011;46889;37.310;13.582;2023-05-23T00:55:13;18.75;;;9.77;;
61003;SDS011;46889;37.310;13.582;2023-05-23T01:00:11;19.42;;;9.88;;
61003;SDS011;46889;37.310;13.582;2023-05-23T01:02:38;18.85;;;8.95;;
61003;SDS011;46889;37.310;13.582;2023-05-23T01:05:09;17.58;;;9.88;;
61003;SDS011;46889;37.310;13.582;2023-05-23T01:07:39;18.55;;;9.93;;
61003;SDS011;46889;37.310;13.582;2023-05-23T01:10:06;18.00;;;8.27;;
61003;SDS011;46889;37.310;13.582;2023-05-23T01:15:22;16.77;;;9.45;;
61003;SDS011;46889;37.310;13.582;2023-05-23T01:18:01;14.27;;;9.10;;
61003;SDS011;46889;37.310;13.582;2023-05-23T01:23:28;16.25;;;9.48;;
61003;SDS011;46889;37.310;13.582;2023-05-23T01:29:19;17.77;;;9.52;;
61003;SDS011;46889;37.310;13.582;2023-05-23T01:31:54;13.67;;;8.37;;
61003;SDS011;46889;37.310;13.582;2023-05-23T01:34:24;18.33;;;8.32;;
61003;SDS011;46889;37.310;13.582;2023-05-23T01:36:52;16.48;;;7.53;;
61003;SDS011;46889;37.310;13.582;2023-05-23T01:39:22;20.17;;;7.75;;
61003;SDS011;46889;37.310;13.582;2023-05-23T01:41:48;15.75;;;7.78;;
61003;SDS011;46889;37.310;13.582;2023-05-23T01:44:15;15.25;;;8.35;;
61003;SDS011;46889;37.310;13.582;2023-05-23T01:46:42;16.80;;;8.35;;
61003;SDS011;46889;37.310;13.582;2023-05-23T01:49:11;20.20;;;8.50;;
61003;SDS011;46889;37.310;13.582;2023-05-23T01:51:39;14.43;;;8.77;;
61003;SDS011;46889;37.310;13.582;2023-05-23T01:54:06;17.65;;;8.73;;
61003;SDS011;46889;37.310;13.582;2023-05-23T01:56:32;17.30;;;8.77;;
61003;SDS011;46889;37.310;13.582;2023-05-23T01:58:59;20.83;;;8.82;;
61003;SDS011;46889;37.310;13.582;2023-05-23T02:03:51;14.95;;;8.43;;
61003;SDS011;46889;37.310;13.582;2023-05-23T02:06:18;21.93;;;9.37;;
61003;SDS011;46889;37.310;13.582;2023-05-23T02:08:44;14.67;;;9.33;;
61003;SDS011;46889;37.310;13.582;2023-05-23T02:11:10;17.60;;;9.93;;
61003;SDS011;46889;37.310;13.582;2023-05-23T02:13:36;18.40;;;8.55;;
61003;SDS011;46889;37.310;13.582;2023-05-23T02:16:02;16.55;;;8.32;;
61003;SDS011;46889;37.310;13.582;2023-05-23T02:18:28;18.33;;;8.98;;
61003;SDS011;46889;37.310;13.582;2023-05-23T02:20:54;14.07;;;7.35;;
61003;SDS011;46889;37.310;13.582;2023-05-23T02:23:21;16.73;;;8.68;;
61003;SDS011;46889;37.310;13.582;2023-05-23T02:25:47;13.55;;;8.65;;
61003;SDS011;46889;37.310;13.582;2023-05-23T02:28:13;15.77;;;8.70;;
61003;SDS011;46889;37.310;13.582;2023-05-23T02:30:39;17.70;;;9.33;;
61003;SDS011;46889;37.310;13.582;2023-05-23T02:33:05;17.13;;;9.60;;
61003;SDS011;46889;37.310;13.582;2023-05-23T02:37:58;13.77;;;8.25;;
61003;SDS011;46889;37.310;13.582;2023-05-23T02:40:25;14.02;;;9.02;;
61003;SDS011;46889;37.310;13.582;2023-05-23T02:42:51;12.57;;;8.77;;
61003;SDS011;46889;37.310;13.582;2023-05-23T02:45:17;18.38;;;9.25;;
61003;SDS011;46889;37.310;13.582;2023-05-23T02:47:43;15.95;;;8.50;;
61003;SDS011;46889;37.310;13.582;2023-05-23T02:50:09;14.25;;;8.70;;
61003;SDS011;46889;37.310;13.582;2023-05-23T02:52:35;15.75;;;8.82;;
61003;SDS011;46889;37.310;13.582;2023-05-23T02:55:01;16.88;;;8.88;;
61003;SDS011;46889;37.310;13.582;2023-05-23T02:57:27;14.13;;;8.35;;
61003;SDS011;46889;37.310;13.582;2023-05-23T02:59:53;12.97;;;8.70;;
61003;SDS011;46889;37.310;13.582;2023-05-23T03:02:19;15.00;;;8.93;;
61003;SDS011;46889;37.310;13.582;2023-05-23T03:04:45;15.33;;;9.50;;
61003;SDS011;46889;37.310;13.582;2023-05-23T03:07:13;12.50;;;9.30;;
61003;SDS011;46889;37.310;13.582;2023-05-23T03:12:05;17.27;;;9.13;;
61003;SDS011;46889;37.310;13.582;2023-05-23T03:14:31;17.55;;;9.90;;
61003;SDS011;46889;37.310;13.582;2023-05-23T03:16:58;19.08;;;9.60;;
61003;SDS011;46889;37.310;13.582;2023-05-23T03:19:24;16.38;;;9.98;;
61003;SDS011;46889;37.310;13.582;2023-05-23T03:21:50;17.77;;;9.90;;
61003;SDS011;46889;37.310;13.582;2023-05-23T03:24:16;19.50;;;10.07;;
61003;SDS011;46889;37.310;13.582;2023-05-23T03:26:42;14.55;;;8.75;;
61003;SDS011;46889;37.310;13.582;2023-05-23T03:29:09;16.48;;;9.15;;
61003;SDS011;46889;37.310;13.582;2023-05-23T03:31:35;15.45;;;9.63;;
61003;SDS011;46889;37.310;13.582;2023-05-23T03:34:01;17.20;;;10.07;;
61003;SDS011;46889;37.310;13.582;2023-05-23T03:36:30;16.48;;;10.13;;
61003;SDS011;46889;37.310;13.582;2023-05-23T03:39:00;24.20;;;10.95;;
61003;SDS011;46889;37.310;13.582;2023-05-23T03:41:26;21.05;;;10.68;;
61003;SDS011;46889;37.310;13.582;2023-05-23T03:43:53;17.83;;;10.35;;
61003;SDS011;46889;37.310;13.582;2023-05-23T03:46:19;14.67;;;10.90;;
61003;SDS011;46889;37.310;13.582;2023-05-23T03:48:45;18.85;;;10.85;;
61003;SDS011;46889;37.310;13.582;2023-05-23T03:51:11;16.60;;;10.48;;
61003;SDS011;46889;37.310;13.582;2023-05-23T03:53:40;18.27;;;10.98;;
61003;SDS011;46889;37.310;13.582;2023-05-23T03:56:06;16.20;;;10.98;;
61003;SDS011;46889;37.310;13.582;2023-05-23T03:58:32;16.50;;;10.68;;
61003;SDS011;46889;37.310;13.582;2023-05-23T04:00:58;14.57;;;10.52;;
61003;SDS011;46889;37.310;13.582;2023-05-23T04:03:25;17.70;;;10.98;;
61003;SDS011;46889;37.310;13.582;2023-05-23T04:05:52;17.55;;;10.93;;
61003;SDS011;46889;37.310;13.582;2023-05-23T04:08:18;14.32;;;10.98;;
61003;SDS011;46889;37.310;13.582;2023-05-23T04:10:46;15.15;;;9.52;;
61003;SDS011;46889;37.310;13.582;2023-05-23T04:13:12;15.73;;;10.32;;
61003;SDS011;46889;37.310;13.582;2023-05-23T04:18:05;16.35;;;10.73;;
61003;SDS011;46889;37.310;13.582;2023-05-23T04:20:33;19.55;;;11.05;;
61003;SDS011;46889;37.310;13.582;2023-05-23T04:22:59;16.52;;;10.35;;
61003;SDS011;46889;37.310;13.582;2023-05-23T04:25:25;19.30;;;11.02;;
61003;SDS011;46889;37.310;13.582;2023-05-23T04:27:51;16.85;;;10.52;;
61003;SDS011;46889;37.310;13.582;2023-05-23T04:32:44;16.25;;;10.30;;
61003;SDS011;46889;37.310;13.582;2023-05-23T04:35:10;16.25;;;10.25;;
61003;SDS011;46889;37.310;13.582;2023-05-23T04:37:36;19.40;;;10.30;;
61003;SDS011;46889;37.310;13.582;2023-05-23T04:40:03;16.10;;;9.95;;
61003;SDS011;46889;37.310;13.582;2023-05-23T04:42:31;15.95;;;9.43;;
61003;SDS011;46889;37.310;13.582;2023-05-23T04:44:57;16.13;;;9.73;;
61003;SDS011;46889;37.310;13.582;2023-05-23T04:47:23;17.10;;;10.23;;
61003;SDS011;46889;37.310;13.582;2023-05-23T04:49:52;12.98;;;9.20;;
61003;SDS011;46889;37.310;13.582;2023-05-23T04:52:19;14.70;;;10.07;;
61003;SDS011;46889;37.310;13.582;2023-05-23T04:54:45;17.27;;;9.32;;
61003;SDS011;46889;37.310;13.582;2023-05-23T04:57:13;17.20;;;9.23;;
61003;SDS011;46889;37.310;13.582;2023-05-23T05:02:06;14.77;;;7.88;;
61003;SDS011;46889;37.310;13.582;2023-05-23T05:04:33;12.30;;;7.57;;
61003;SDS011;46889;37.310;13.582;2023-05-23T05:09:28;10.65;;;6.43;;
61003;SDS011;46889;37.310;13.582;2023-05-23T05:11:55;11.32;;;5.93;;
61003;SDS011;46889;37.310;13.582;2023-05-23T05:16:47;15.43;;;6.88;;
61003;SDS011;46889;37.310;13.582;2023-05-23T05:21:40;15.93;;;6.13;;
61003;SDS011;46889;37.310;13.582;2023-05-23T05:24:06;8.20;;;5.40;;
61003;SDS011;46889;37.310;13.582;2023-05-23T05:26:34;9.73;;;5.28;;
61003;SDS011;46889;37.310;13.582;2023-05-23T05:29:00;10.35;;;5.88;;
61003;SDS011;46889;37.310;13.582;2023-05-23T05:31:27;9.10;;;5.90;;
61003;SDS011;46889;37.310;13.582;2023-05-23T05:33:53;12.13;;;5.50;;
61003;SDS011;46889;37.310;13.582;2023-05-23T05:36:20;13.82;;;5.80;;
61003;SDS011;46889;37.310;13.582;2023-05-23T05:38:46;10.52;;;4.75;;
61003;SDS011;46889;37.310;13.582;2023-05-23T05:41:12;11.98;;;5.53;;
61003;SDS011;46889;37.310;13.582;2023-05-23T05:43:38;7.55;;;5.03;;
61003;SDS011;46889;37.310;13.582;2023-05-23T05:46:04;11.88;;;5.20;;
61003;SDS011;46889;37.310;13.582;2023-05-23T05:48:30;11.60;;;4.90;;
61003;SDS011;46889;37.310;13.582;2023-05-23T05:50:57;12.57;;;4.82;;
61003;SDS011;46889;37.310;13.582;2023-05-23T05:53:25;7.63;;;4.65;;
61003;SDS011;46889;37.310;13.582;2023-05-23T05:55:52;8.80;;;4.53;;
61003;SDS011;46889;37.310;13.582;2023-05-23T05:58:19;13.40;;;5.03;;
61003;SDS011;46889;37.310;13.582;2023-05-23T06:00:45;9.55;;;4.95;;
61003;SDS011;46889;37.310;13.582;2023-05-23T06:03:13;8.82;;;4.60;;
61003;SDS011;46889;37.310;13.582;2023-05-23T06:05:40;9.80;;;4.60;;
61003;SDS011;46889;37.310;13.582;2023-05-23T06:08:06;8.25;;;4.78;;
61003;SDS011;46889;37.310;13.582;2023-05-23T06:10:32;9.45;;;4.50;;
61003;SDS011;46889;37.310;13.582;2023-05-23T06:12:58;11.50;;;5.22;;
61003;SDS011;46889;37.310;13.582;2023-05-23T06:15:24;13.55;;;4.68;;
61003;SDS011;46889;37.310;13.582;2023-05-23T06:17:51;9.55;;;4.43;;
61003;SDS011;46889;37.310;13.582;2023-05-23T06:20:17;10.68;;;4.10;;
61003;SDS011;46889;37.310;13.582;2023-05-23T06:22:43;11.40;;;4.32;;
61003;SDS011;46889;37.310;13.582;2023-05-23T06:25:09;11.60;;;4.68;;
61003;SDS011;46889;37.310;13.582;2023-05-23T06:27:36;9.20;;;4.43;;
61003;SDS011;46889;37.310;13.582;2023-05-23T06:30:05;9.23;;;4.03;;
61003;SDS011;46889;37.310;13.582;2023-05-23T06:32:32;11.48;;;4.30;;
61003;SDS011;46889;37.310;13.582;2023-05-23T06:34:58;13.52;;;4.13;;
61003;SDS011;46889;37.310;13.582;2023-05-23T06:37:24;8.15;;;3.85;;
61003;SDS011;46889;37.310;13.582;2023-05-23T06:39:50;9.20;;;3.60;;
61003;SDS011;46889;37.310;13.582;2023-05-23T06:42:16;9.10;;;3.97;;
61003;SDS011;46889;37.310;13.582;2023-05-23T06:44:42;7.25;;;3.45;;
61003;SDS011;46889;37.310;13.582;2023-05-23T06:47:08;7.55;;;3.33;;
61003;SDS011;46889;37.310;13.582;2023-05-23T06:49:34;7.00;;;3.83;;
61003;SDS011;46889;37.310;13.582;2023-05-23T06:52:00;10.90;;;4.05;;
61003;SDS011;46889;37.310;13.582;2023-05-23T06:54:26;8.27;;;3.47;;
61003;SDS011;46889;37.310;13.582;2023-05-23T06:56:52;7.95;;;3.20;;
61003;SDS011;46889;37.310;13.582;2023-05-23T06:59:18;7.95;;;3.00;;
61003;SDS011;46889;37.310;13.582;2023-05-23T07:01:44;7.95;;;2.60;;
61003;SDS011;46889;37.310;13.582;2023-05-23T07:04:10;11.63;;;3.00;;
61003;SDS011;46889;37.310;13.582;2023-05-23T07:06:37;8.93;;;2.80;;
61003;SDS011;46889;37.310;13.582;2023-05-23T07:09:04;8.77;;;2.65;;
61003;SDS011;46889;37.310;13.582;2023-05-23T07:13:56;6.72;;;2.75;;
61003;SDS011;46889;37.310;13.582;2023-05-23T07:16:22;11.07;;;3.00;;
61003;SDS011;46889;37.310;13.582;2023-05-23T07:18:48;7.55;;;2.63;;
61003;SDS011;46889;37.310;13.582;2023-05-23T07:21:14;9.60;;;3.00;;
61003;SDS011;46889;37.310;13.582;2023-05-23T07:23:40;9.55;;;2.85;;
61003;SDS011;46889;37.310;13.582;2023-05-23T07:26:06;11.27;;;3.40;;
61003;SDS011;46889;37.310;13.582;2023-05-23T07:28:34;9.48;;;2.60;;
61003;SDS011;46889;37.310;13.582;2023-05-23T07:31:01;11.60;;;2.78;;
61003;SDS011;46889;37.310;13.582;2023-05-23T07:33:27;7.32;;;3.58;;
61003;SDS011;46889;37.310;13.582;2023-05-23T07:35:53;12.68;;;2.90;;
61003;SDS011;46889;37.310;13.582;2023-05-23T07:38:19;8.68;;;3.22;;
61003;SDS011;46889;37.310;13.582;2023-05-23T07:43:11;17.05;;;3.63;;
61003;SDS011;46889;37.310;13.582;2023-05-23T07:45:37;13.50;;;3.97;;
61003;SDS011;46889;37.310;13.582;2023-05-23T07:48:04;10.05;;;3.75;;
61003;SDS011;46889;37.310;13.582;2023-05-23T07:50:30;7.90;;;3.20;;
61003;SDS011;46889;37.310;13.582;2023-05-23T07:52:56;10.65;;;4.40;;
61003;SDS011;46889;37.310;13.582;2023-05-23T07:55:22;10.88;;;3.97;;
61003;SDS011;46889;37.310;13.582;2023-05-23T07:57:48;17.40;;;4.28;;
61003;SDS011;46889;37.310;13.582;2023-05-23T08:00:15;9.38;;;3.65;;
61003;SDS011;46889;37.310;13.582;2023-05-23T08:02:41;14.88;;;4.43;;
61003;SDS011;46889;37.310;13.582;2023-05-23T08:05:07;11.65;;;4.25;;
61003;SDS011;46889;37.310;13.582;2023-05-23T08:07:34;15.52;;;4.80;;
61003;SDS011;46889;37.310;13.582;2023-05-23T08:10:00;11.43;;;4.28;;
61003;SDS011;46889;37.310;13.582;2023-05-23T08:12:26;9.63;;;4.30;;
61003;SDS011;46889;37.310;13.582;2023-05-23T08:14:52;14.23;;;4.43;;
61003;SDS011;46889;37.310;13.582;2023-05-23T08:17:18;12.70;;;4.53;;
61003;SDS011;46889;37.310;13.582;2023-05-23T08:19:44;10.13;;;4.25;;
61003;SDS011;46889;37.310;13.582;2023-05-23T08:24:37;13.80;;;4.35;;
61003;SDS011;46889;37.310;13.582;2023-05-23T08:27:03;9.02;;;4.03;;
61003;SDS011;46889;37.310;13.582;2023-05-23T08:29:31;8.77;;;4.30;;
61003;SDS011;46889;37.310;13.582;2023-05-23T08:31:59;9.13;;;4.53;;
61003;SDS011;46889;37.310;13.582;2023-05-23T08:34:26;8.82;;;4.07;;
61003;SDS011;46889;37.310;13.582;2023-05-23T08:36:52;13.15;;;4.70;;
61003;SDS011;46889;37.310;13.582;2023-05-23T08:39:18;10.63;;;4.60;;
61003;SDS011;46889;37.310;13.582;2023-05-23T08:41:44;8.95;;;4.13;;
61003;SDS011;46889;37.310;13.582;2023-05-23T08:46:38;8.95;;;3.83;;
61003;SDS011;46889;37.310;13.582;2023-05-23T08:49:09;14.77;;;4.65;;
61003;SDS011;46889;37.310;13.582;2023-05-23T08:51:39;10.88;;;4.18;;
61003;SDS011;46889;37.310;13.582;2023-05-23T08:54:07;8.90;;;4.10;;
61003;SDS011;46889;37.310;13.582;2023-05-23T08:56:40;12.45;;;3.70;;
61003;SDS011;46889;37.310;13.582;2023-05-23T08:59:08;9.43;;;3.42;;
61003;SDS011;46889;37.310;13.582;2023-05-23T09:01:36;8.57;;;3.30;;
61003;SDS011;46889;37.310;13.582;2023-05-23T09:04:04;9.98;;;3.50;;
61003;SDS011;46889;37.310;13.582;2023-05-23T09:06:31;10.35;;;3.67;;
61003;SDS011;46889;37.310;13.582;2023-05-23T09:08:57;14.55;;;5.90;;
61003;SDS011;46889;37.310;13.582;2023-05-23T09:11:23;9.48;;;3.40;;
61003;SDS011;46889;37.310;13.582;2023-05-23T09:18:44;8.23;;;3.42;;
61003;SDS011;46889;37.310;13.582;2023-05-23T09:21:11;10.07;;;3.55;;
61003;SDS011;46889;37.310;13.582;2023-05-23T09:23:38;13.15;;;3.65;;
61003;SDS011;46889;37.310;13.582;2023-05-23T09:26:08;10.18;;;3.60;;
61003;SDS011;46889;37.310;13.582;2023-05-23T09:28:37;8.77;;;3.67;;
61003;SDS011;46889;37.310;13.582;2023-05-23T09:31:05;11.77;;;4.85;;
61003;SDS011;46889;37.310;13.582;2023-05-23T09:33:39;11.20;;;3.95;;
61003;SDS011;46889;37.310;13.582;2023-05-23T09:36:13;7.72;;;3.70;;
61003;SDS011;46889;37.310;13.582;2023-05-23T09:38:41;6.63;;;3.70;;
61003;SDS011;46889;37.310;13.582;2023-05-23T09:41:08;10.18;;;4.35;;
61003;SDS011;46889;37.310;13.582;2023-05-23T09:43:38;10.80;;;3.63;;
61003;SDS011;46889;37.310;13.582;2023-05-23T09:48:45;9.80;;;3.95;;
61003;SDS011;46889;37.310;13.582;2023-05-23T09:51:17;7.38;;;3.80;;
61003;SDS011;46889;37.310;13.582;2023-05-23T09:53:47;15.23;;;5.13;;
61003;SDS011;46889;37.310;13.582;2023-05-23T09:56:17;15.38;;;4.90;;
61003;SDS011;46889;37.310;13.582;2023-05-23T09:58:46;12.82;;;5.45;;
61003;SDS011;46889;37.310;13.582;2023-05-23T10:01:13;10.02;;;5.00;;
61003;SDS011;46889;37.310;13.582;2023-05-23T10:03:44;11.60;;;4.97;;
61003;SDS011;46889;37.310;13.582;2023-05-23T10:06:23;9.20;;;5.07;;
61003;SDS011;46889;37.310;13.582;2023-05-23T10:09:01;10.10;;;4.70;;
61003;SDS011;46889;37.310;13.582;2023-05-23T10:13:59;16.25;;;4.25;;
61003;SDS011;46889;37.310;13.582;2023-05-23T10:22:19;7.32;;;4.07;;
61003;SDS011;46889;37.310;13.582;2023-05-23T10:24:46;9.68;;;4.18;;
61003;SDS011;46889;37.310;13.582;2023-05-23T10:27:13;13.90;;;4.55;;
61003;SDS011;46889;37.310;13.582;2023-05-23T10:29:40;7.65;;;3.70;;
61003;SDS011;46889;37.310;13.582;2023-05-23T10:32:07;11.27;;;4.03;;
61003;SDS011;46889;37.310;13.582;2023-05-23T10:34:45;10.13;;;3.90;;
61003;SDS011;46889;37.310;13.582;2023-05-23T10:40:20;13.93;;;4.13;;
61003;SDS011;46889;37.310;13.582;2023-05-23T10:45:20;10.75;;;5.00;;
61003;SDS011;46889;37.310;13.582;2023-05-23T10:47:48;10.90;;;4.05;;
61003;SDS011;46889;37.310;13.582;2023-05-23T10:50:29;9.35;;;3.97;;
61003;SDS011;46889;37.310;13.582;2023-05-23T10:53:01;7.93;;;4.05;;
61003;SDS011;46889;37.310;13.582;2023-05-23T10:55:32;9.38;;;4.28;;
61003;SDS011;46889;37.310;13.582;2023-05-23T10:58:15;10.80;;;4.03;;
61003;SDS011;46889;37.310;13.582;2023-05-23T11:00:56;12.50;;;3.97;;
61003;SDS011;46889;37.310;13.582;2023-05-23T11:03:33;12.60;;;4.45;;
61003;SDS011;46889;37.310;13.582;2023-05-23T11:06:01;10.82;;;4.50;;
61003;SDS011;46889;37.310;13.582;2023-05-23T11:08:35;12.25;;;4.00;;
61003;SDS011;46889;37.310;13.582;2023-05-23T11:11:02;11.57;;;4.32;;
61003;SDS011;46889;37.310;13.582;2023-05-23T11:14:14;11.63;;;3.95;;
61003;SDS011;46889;37.310;13.582;2023-05-23T11:16:22;10.23;;;3.97;;
61003;SDS011;46889;37.310;13.582;2023-05-23T11:21:44;9.15;;;3.65;;
61003;SDS011;46889;37.310;13.582;2023-05-23T11:24:13;12.70;;;4.38;;
61003;SDS011;46889;37.310;13.582;2023-05-23T11:26:39;8.95;;;3.85;;
61003;SDS011;46889;37.310;13.582;2023-05-23T11:29:24;13.13;;;4.03;;
61003;SDS011;46889;37.310;13.582;2023-05-23T11:31:51;11.95;;;4.30;;
61003;SDS011;46889;37.310;13.582;2023-05-23T11:34:17;8.30;;;4.00;;
61003;SDS011;46889;37.310;13.582;2023-05-23T11:36:45;9.00;;;4.05;;
61003;SDS011;46889;37.310;13.582;2023-05-23T11:39:12;7.78;;;3.88;;
61003;SDS011;46889;37.310;13.582;2023-05-23T11:41:40;12.98;;;4.18;;
61003;SDS011;46889;37.310;13.582;2023-05-23T11:44:11;11.15;;;3.40;;
61003;SDS011;46889;37.310;13.582;2023-05-23T11:46:37;10.80;;;3.47;;
61003;SDS011;46889;37.310;13.582;2023-05-23T11:49:11;9.65;;;3.67;;
61003;SDS011;46889;37.310;13.582;2023-05-23T11:51:37;11.35;;;3.00;;
61003;SDS011;46889;37.310;13.582;2023-05-23T11:54:03;9.43;;;3.22;;
61003;SDS011;46889;37.310;13.582;2023-05-23T11:56:30;9.45;;;3.15;;
61003;SDS011;46889;37.310;13.582;2023-05-23T11:59:03;10.80;;;3.05;;
61003;SDS011;46889;37.310;13.582;2023-05-23T12:01:29;11.80;;;3.40;;
61003;SDS011;46889;37.310;13.582;2023-05-23T12:03:55;14.27;;;3.88;;
61003;SDS011;46889;37.310;13.582;2023-05-23T12:06:21;11.32;;;4.00;;
61003;SDS011;46889;37.310;13.582;2023-05-23T12:08:49;9.23;;;3.33;;
61003;SDS011;46889;37.310;13.582;2023-05-23T12:11:16;15.57;;;3.50;;
61003;SDS011;46889;37.310;13.582;2023-05-23T12:13:47;20.50;;;3.58;;
61003;SDS011;46889;37.310;13.582;2023-05-23T12:16:24;12.57;;;4.00;;
61003;SDS011;46889;37.310;13.582;2023-05-23T12:18:50;10.48;;;3.63;;
61003;SDS011;46889;37.310;13.582;2023-05-23T12:21:17;14.95;;;4.03;;
61003;SDS011;46889;37.310;13.582;2023-05-23T12:23:44;12.73;;;3.60;;
61003;SDS011;46889;37.310;13.582;2023-05-23T12:26:11;9.60;;;4.13;;
61003;SDS011;46889;37.310;13.582;2023-05-23T12:28:37;13.43;;;3.80;;
61003;SDS011;46889;37.310;13.582;2023-05-23T12:31:16;9.60;;;3.42;;
61003;SDS011;46889;37.310;13.582;2023-05-23T12:33:43;12.52;;;3.22;;
61003;SDS011;46889;37.310;13.582;2023-05-23T12:36:10;15.15;;;3.72;;
61003;SDS011;46889;37.310;13.582;2023-05-23T12:38:36;11.75;;;3.88;;
61003;SDS011;46889;37.310;13.582;2023-05-23T12:41:11;17.55;;;4.35;;
61003;SDS011;46889;37.310;13.582;2023-05-23T12:43:38;19.92;;;4.25;;
61003;SDS011;46889;37.310;13.582;2023-05-23T12:46:25;15.15;;;4.35;;
61003;SDS011;46889;37.310;13.582;2023-05-23T12:48:51;14.20;;;4.20;;
61003;SDS011;46889;37.310;13.582;2023-05-23T12:51:18;14.50;;;4.32;;
61003;SDS011;46889;37.310;13.582;2023-05-23T12:53:46;11.18;;;3.88;;
61003;SDS011;46889;37.310;13.582;2023-05-23T12:56:12;18.83;;;5.25;;
61003;SDS011;46889;37.310;13.582;2023-05-23T12:58:38;18.63;;;4.93;;
61003;SDS011;46889;37.310;13.582;2023-05-23T13:01:04;14.05;;;3.90;;
61003;SDS011;46889;37.310;13.582;2023-05-23T13:03:48;18.00;;;4.00;;
61003;SDS011;46889;37.310;13.582;2023-05-23T13:06:14;11.02;;;4.18;;
61003;SDS011;46889;37.310;13.582;2023-05-23T13:08:40;14.75;;;4.78;;
61003;SDS011;46889;37.310;13.582;2023-05-23T13:11:07;26.05;;;5.28;;
61003;SDS011;46889;37.310;13.582;2023-05-23T13:13:35;11.50;;;4.10;;
61003;SDS011;46889;37.310;13.582;2023-05-23T13:16:01;19.38;;;4.57;;
61003;SDS011;46889;37.310;13.582;2023-05-23T13:18:27;18.63;;;5.30;;
61003;SDS011;46889;37.310;13.582;2023-05-23T13:20:53;17.42;;;4.97;;
61003;SDS011;46889;37.310;13.582;2023-05-23T13:23:20;13.93;;;4.60;;
61003;SDS011;46889;37.310;13.582;2023-05-23T13:25:46;19.15;;;4.32;;
61003;SDS011;46889;37.310;13.582;2023-05-23T13:28:14;13.23;;;4.25;;
61003;SDS011;46889;37.310;13.582;2023-05-23T13:30:41;16.05;;;4.22;;
61003;SDS011;46889;37.310;13.582;2023-05-23T13:33:07;11.80;;;4.57;;
61003;SDS011;46889;37.310;13.582;2023-05-23T13:35:33;22.55;;;8.02;;
61003;SDS011;46889;37.310;13.582;2023-05-23T13:37:59;17.30;;;5.07;;
61003;SDS011;46889;37.310;13.582;2023-05-23T13:40:25;13.00;;;4.28;;
61003;SDS011;46889;37.310;13.582;2023-05-23T13:42:51;18.38;;;5.32;;
61003;SDS011;46889;37.310;13.582;2023-05-23T13:45:17;23.42;;;4.93;;
61003;SDS011;46889;37.310;13.582;2023-05-23T13:47:46;16.33;;;4.75;;
61003;SDS011;46889;37.310;13.582;2023-05-23T13:50:12;15.27;;;4.63;;
61003;SDS011;46889;37.310;13.582;2023-05-23T13:52:39;18.48;;;5.03;;
61003;SDS011;46889;37.310;13.582;2023-05-23T13:55:05;16.50;;;5.57;;
61003;SDS011;46889;37.310;13.582;2023-05-23T13:57:32;14.50;;;4.57;;
61003;SDS011;46889;37.310;13.582;2023-05-23T13:59:58;13.38;;;4.35;;
61003;SDS011;46889;37.310;13.582;2023-05-23T14:02:24;13.20;;;4.40;;
61003;SDS011;46889;37.310;13.582;2023-05-23T14:04:51;24.50;;;4.43;;
61003;SDS011;46889;37.310;13.582;2023-05-23T14:07:17;17.17;;;3.97;;
61003;SDS011;46889;37.310;13.582;2023-05-23T14:09:43;12.30;;;3.95;;
61003;SDS011;46889;37.310;13.582;2023-05-23T14:12:09;14.45;;;4.10;;
61003;SDS011;46889;37.310;13.582;2023-05-23T14:14:35;19.58;;;4.95;;
61003;SDS011;46889;37.310;13.582;2023-05-23T14:17:01;15.32;;;4.70;;
61003;SDS011;46889;37.310;13.582;2023-05-23T14:19:27;16.00;;;4.35;;
61003;SDS011;46889;37.310;13.582;2023-05-23T14:21:53;25.40;;;5.03;;
61003;SDS011;46889;37.310;13.582;2023-05-23T14:24:19;18.65;;;4.68;;
61003;SDS011;46889;37.310;13.582;2023-05-23T14:26:46;15.85;;;4.65;;
61003;SDS011;46889;37.310;13.582;2023-05-23T14:29:14;16.13;;;5.00;;
61003;SDS011;46889;37.310;13.582;2023-05-23T14:31:40;20.42;;;4.47;;
61003;SDS011;46889;37.310;13.582;2023-05-23T14:34:06;17.85;;;5.20;;
61003;SDS011;46889;37.310;13.582;2023-05-23T14:36:32;14.52;;;4.65;;
61003;SDS011;46889;37.310;13.582;2023-05-23T14:39:01;19.35;;;4.50;;
61003;SDS011;46889;37.310;13.582;2023-05-23T14:41:28;16.02;;;5.10;;
61003;SDS011;46889;37.310;13.582;2023-05-23T14:43:55;18.73;;;4.80;;
61003;SDS011;46889;37.310;13.582;2023-05-23T14:46:21;17.33;;;5.25;;
61003;SDS011;46889;37.310;13.582;2023-05-23T14:48:47;17.23;;;4.35;;
61003;SDS011;46889;37.310;13.582;2023-05-23T14:51:29;18.77;;;5.25;;
61003;SDS011;46889;37.310;13.582;2023-05-23T14:54:42;20.50;;;10.15;;
61003;SDS011;46889;37.310;13.582;2023-05-23T14:57:55;20.20;;;9.13;;
61003;SDS011;46889;37.310;13.582;2023-05-23T15:00:43;18.85;;;6.47;;
61003;SDS011;46889;37.310;13.582;2023-05-23T15:03:11;32.67;;;15.07;;
61003;SDS011;46889;37.310;13.582;2023-05-23T15:08:04;15.85;;;5.30;;
61003;SDS011;46889;37.310;13.582;2023-05-23T15:10:30;18.40;;;5.68;;
61003;SDS011;46889;37.310;13.582;2023-05-23T15:12:56;12.98;;;4.25;;
61003;SDS011;46889;37.310;13.582;2023-05-23T15:15:23;18.83;;;4.40;;
61003;SDS011;46889;37.310;13.582;2023-05-23T15:17:51;15.57;;;4.50;;
61003;SDS011;46889;37.310;13.582;2023-05-23T15:20:17;13.45;;;4.50;;
61003;SDS011;46889;37.310;13.582;2023-05-23T15:22:43;12.98;;;4.45;;
61003;SDS011;46889;37.310;13.582;2023-05-23T15:25:09;15.27;;;4.32;;
61003;SDS011;46889;37.310;13.582;2023-05-23T15:27:35;17.80;;;5.07;;
61003;SDS011;46889;37.310;13.582;2023-05-23T15:30:02;11.57;;;4.38;;
61003;SDS011;46889;37.310;13.582;2023-05-23T15:34:54;13.63;;;4.63;;
61003;SDS011;46889;37.310;13.582;2023-05-23T15:37:20;14.00;;;4.70;;
61003;SDS011;46889;37.310;13.582;2023-05-23T15:39:46;18.13;;;4.70;;
61003;SDS011;46889;37.310;13.582;2023-05-23T15:42:13;14.13;;;4.45;;